createdAt,value
2022-11-13T00:01:24.502Z,99489.25
2022-11-13T00:03:53.347Z,99490.31
2022-11-13T00:06:21.918Z,99489.31
2022-11-13T00:08:54.545Z,99486.31
2022-11-13T00:11:23.365Z,99485.34
2022-11-13T00:13:51.821Z,99491.94
2022-11-13T00:16:22.603Z,99491.72
2022-11-13T00:18:51.005Z,99489.97
2022-11-13T00:21:25.586Z,99485.69
2022-11-13T00:23:54.730Z,99492.13
2022-11-13T00:26:25.936Z,99496.72
2022-11-13T00:28:59.957Z,99500.88
2022-11-13T00:31:29.389Z,99503.94
2022-11-13T00:36:48.975Z,99513.41
2022-11-13T00:39:17.281Z,99518.00
2022-11-13T00:41:45.572Z,99529.25
2022-11-13T00:44:13.948Z,99532.09
2022-11-13T00:46:42.291Z,99542.81
2022-11-13T00:49:10.813Z,99536.50
2022-11-13T00:51:39.160Z,99539.59
2022-11-13T00:54:07.475Z,99542.75
2022-11-13T00:56:35.788Z,99542.81
2022-11-13T00:59:04.236Z,99540.66
2022-11-13T01:01:33.176Z,99546.53
2022-11-13T01:04:01.522Z,99555.50
2022-11-13T01:06:30.402Z,99560.44
2022-11-13T01:09:00.856Z,99551.56
2022-11-13T01:11:31.857Z,99558.72
2022-11-13T01:14:00.666Z,99560.78
2022-11-13T01:16:29.830Z,99569.97
2022-11-13T01:18:58.741Z,99563.91
2022-11-13T01:21:29.140Z,99573.09
2022-11-13T01:26:31.218Z,99565.78
2022-11-13T01:29:01.510Z,99570.41
2022-11-13T01:31:32.035Z,99578.59
2022-11-13T01:34:00.431Z,99587.25
2022-11-13T01:36:30.668Z,99588.28
2022-11-13T01:38:59.692Z,99592.09
2022-11-13T01:41:31.705Z,99597.97
2022-11-13T01:44:01.540Z,99604.59
2022-11-13T01:46:34.436Z,99593.91
2022-11-13T01:49:11.744Z,99606.41
2022-11-13T01:51:49.909Z,99606.44
2022-11-13T01:54:25.440Z,99602.13
2022-11-13T01:56:55.284Z,99605.69
2022-11-13T01:59:28.297Z,99605.72
2022-11-13T02:01:58.140Z,99606.00
2022-11-13T02:04:28.467Z,99612.44
2022-11-13T02:07:03.793Z,99606.31
2022-11-13T02:09:57.086Z,99609.13
2022-11-13T02:12:40.266Z,99609.16
2022-11-13T02:15:09.723Z,99618.09
2022-11-13T02:17:45.796Z,99619.09
2022-11-13T02:20:15.300Z,99616.06
2022-11-13T02:22:53.096Z,99614.53
2022-11-13T02:25:21.761Z,99617.09
2022-11-13T02:27:51.753Z,99617.63
2022-11-13T02:30:32.434Z,99609.94
2022-11-13T02:33:01.441Z,99604.06
2022-11-13T02:35:33.927Z,99607.88
2022-11-13T02:38:05.162Z,99607.59
2022-11-13T02:40:34.733Z,99604.00
2022-11-13T02:43:03.042Z,99601.69
2022-11-13T02:45:31.432Z,99611.09
2022-11-13T02:48:02.035Z,99603.94
2022-11-13T02:50:30.345Z,99603.63
2022-11-13T02:52:59.075Z,99597.16
2022-11-13T02:55:27.429Z,99596.63
2022-11-13T02:57:55.730Z,99596.06
2022-11-13T03:00:24.274Z,99595.50
2022-11-13T03:02:52.620Z,99589.53
2022-11-13T03:05:21.031Z,99584.88
2022-11-13T03:07:49.615Z,99591.97
2022-11-13T03:10:18.540Z,99597.34
2022-11-13T03:12:47.154Z,99597.28
2022-11-13T03:15:15.896Z,99589.09
2022-11-13T03:17:44.302Z,99584.00
2022-11-13T03:20:12.695Z,99589.31
2022-11-13T03:22:41.028Z,99584.69
2022-11-13T03:25:11.614Z,99579.00
2022-11-13T03:27:40.046Z,99579.75
2022-11-13T03:30:09.013Z,99579.19
2022-11-13T03:32:37.304Z,99578.13
2022-11-13T03:35:06.188Z,99573.22
2022-11-13T03:37:34.472Z,99569.81
2022-11-13T03:40:02.807Z,99566.44
2022-11-13T03:42:32.418Z,99564.53
2022-11-13T03:45:00.693Z,99566.22
2022-11-13T03:47:29.017Z,99563.03
2022-11-13T03:49:57.327Z,99554.81
2022-11-13T03:52:25.654Z,99548.88
2022-11-13T03:54:54.000Z,99542.41
2022-11-13T03:57:22.293Z,99545.13
2022-11-13T03:59:50.611Z,99532.25
2022-11-13T04:02:18.952Z,99528.09
2022-11-13T04:04:47.345Z,99535.63
2022-11-13T04:07:15.669Z,99515.25
2022-11-13T04:09:44.016Z,99515.44
2022-11-13T04:12:12.387Z,99507.66
2022-11-13T04:14:40.701Z,99502.38
2022-11-13T04:17:09.106Z,99500.47
2022-11-13T04:19:37.369Z,99504.72
2022-11-13T04:22:05.715Z,99488.56
2022-11-13T04:24:34.228Z,99486.50
2022-11-13T04:27:03.374Z,99483.13
2022-11-13T04:29:31.684Z,99476.75
2022-11-13T04:31:59.993Z,99471.31
2022-11-13T04:34:28.323Z,99460.69
2022-11-13T04:36:56.748Z,99459.81
2022-11-13T04:39:25.181Z,99456.59
2022-11-13T04:42:11.817Z,99452.06
2022-11-13T04:44:40.140Z,99445.66
2022-11-13T04:47:08.662Z,99445.38
2022-11-13T04:49:37.049Z,99440.69
2022-11-13T04:52:05.603Z,99439.38
2022-11-13T04:54:34.115Z,99439.94
2022-11-13T04:57:02.422Z,99431.25
2022-11-13T04:59:30.845Z,99428.19
2022-11-13T05:01:59.290Z,99426.44
2022-11-13T05:04:27.632Z,99423.63
2022-11-13T05:06:56.018Z,99414.94
2022-11-13T05:09:24.491Z,99412.09
2022-11-13T05:11:52.764Z,99404.06
2022-11-13T05:14:21.089Z,99389.88
2022-11-13T05:16:51.062Z,99389.06
2022-11-13T05:19:19.845Z,99389.06
2022-11-13T05:21:48.161Z,99380.56
2022-11-13T05:24:16.503Z,99387.84
2022-11-13T05:26:44.797Z,99379.47
2022-11-13T05:29:13.080Z,99373.66
2022-11-13T05:31:41.406Z,99367.34
2022-11-13T05:34:09.842Z,99359.81
2022-11-13T05:36:38.211Z,99354.38
2022-11-13T05:39:07.032Z,99349.69
2022-11-13T05:41:35.371Z,99345.78
2022-11-13T05:44:03.685Z,99326.31
2022-11-13T05:46:32.398Z,99327.28
2022-11-13T05:49:03.690Z,99318.78
2022-11-13T05:51:34.676Z,99322.94
2022-11-13T05:54:03.559Z,99323.69
2022-11-13T05:56:37.390Z,99318.25
2022-11-13T05:59:06.113Z,99305.66
2022-11-13T06:01:37.298Z,99302.13
2022-11-13T06:04:06.930Z,99298.59
2022-11-13T06:06:35.834Z,99289.44
2022-11-13T06:09:07.384Z,99292.69
2022-11-13T06:11:36.100Z,99277.63
2022-11-13T06:14:04.413Z,99279.19
2022-11-13T06:16:37.695Z,99268.47
2022-11-13T06:19:09.177Z,99263.41
2022-11-13T06:21:40.140Z,99264.25
2022-11-13T06:24:10.112Z,99262.59
2022-11-13T06:26:38.617Z,99256.47
2022-11-13T06:29:08.520Z,99249.72
2022-11-13T06:31:38.196Z,99239.91
2022-11-13T06:34:07.293Z,99241.25
2022-11-13T06:36:37.955Z,99236.00
2022-11-13T06:39:11.126Z,99228.28
2022-11-13T06:41:40.525Z,99229.59
2022-11-13T06:44:08.940Z,99228.41
2022-11-13T06:46:37.504Z,99226.72
2022-11-13T06:49:05.816Z,99220.84
2022-11-13T06:51:34.211Z,99207.81
2022-11-13T06:54:02.564Z,99214.06
2022-11-13T06:56:31.281Z,99202.53
2022-11-13T06:58:59.586Z,99203.28
2022-11-13T07:01:28.557Z,99196.88
2022-11-13T07:03:56.923Z,99202.53
2022-11-13T07:06:26.085Z,99198.19
2022-11-13T07:08:54.684Z,99196.13
2022-11-13T07:11:24.770Z,99191.00
2022-11-13T07:13:53.107Z,99180.81
2022-11-13T07:16:21.745Z,99182.88
2022-11-13T07:18:55.093Z,99180.44
2022-11-13T07:21:24.100Z,99189.69
2022-11-13T07:23:52.531Z,99184.56
2022-11-13T07:26:21.264Z,99179.28
2022-11-13T07:28:50.641Z,99170.56
2022-11-13T07:31:19.672Z,99172.63
2022-11-13T07:33:50.943Z,99162.44
2022-11-13T07:36:19.568Z,99161.47
2022-11-13T07:38:47.952Z,99155.03
2022-11-13T07:41:16.256Z,99165.22
2022-11-13T07:43:44.569Z,99167.84
2022-11-13T07:46:12.894Z,99162.56
2022-11-13T07:48:41.319Z,99155.75
2022-11-13T07:51:09.752Z,99158.19
2022-11-13T07:53:39.926Z,99158.72
2022-11-13T07:56:08.938Z,99160.03
2022-11-13T07:58:37.543Z,99148.34
2022-11-13T08:01:07.370Z,99150.97
2022-11-13T08:03:35.841Z,99153.59
2022-11-13T08:06:09.274Z,99149.63
2022-11-13T08:08:37.837Z,99145.28
2022-11-13T08:11:08.270Z,99141.50
2022-11-13T08:13:37.651Z,99145.66
2022-11-13T08:16:07.195Z,99143.94
2022-11-13T08:18:35.606Z,99148.28
2022-11-13T08:21:09.189Z,99142.44
2022-11-13T08:23:45.743Z,99135.25
2022-11-13T08:26:14.585Z,99142.22
2022-11-13T08:28:43.728Z,99134.50
2022-11-13T08:31:14.501Z,99133.38
2022-11-13T08:33:43.726Z,99139.78
2022-11-13T08:36:12.789Z,99140.75
2022-11-13T08:38:41.093Z,99142.06
2022-11-13T08:41:09.886Z,99135.66
2022-11-13T08:43:38.222Z,99141.31
2022-11-13T08:46:06.917Z,99130.34
2022-11-13T08:48:35.989Z,99133.75
2022-11-13T08:51:04.592Z,99141.47
2022-11-13T08:53:32.896Z,99143.31
2022-11-13T08:56:04.477Z,99133.13
2022-11-13T08:58:32.938Z,99138.59
2022-11-13T09:01:05.323Z,99136.31
2022-11-13T09:03:33.886Z,99139.66
2022-11-13T09:06:02.164Z,99134.56
2022-11-13T09:08:32.966Z,99129.84
2022-11-13T09:11:06.432Z,99125.31
2022-11-13T09:13:39.858Z,99133.59
2022-11-13T09:16:11.151Z,99125.47
2022-11-13T09:18:39.436Z,99127.53
2022-11-13T09:21:07.770Z,99129.59
2022-11-13T09:23:37.043Z,99129.59
2022-11-13T09:26:05.398Z,99131.44
2022-11-13T09:28:33.704Z,99129.94
2022-11-13T09:31:05.922Z,99136.91
2022-11-13T09:33:37.805Z,99141.97
2022-11-13T09:36:13.076Z,99147.56
2022-11-13T09:38:42.080Z,99146.00
2022-11-13T09:41:14.533Z,99145.16
2022-11-13T09:43:56.592Z,99142.25
2022-11-13T09:46:48.850Z,99145.59
2022-11-13T09:49:28.210Z,99154.72
2022-11-13T09:52:06.179Z,99148.81
2022-11-13T09:54:35.393Z,99153.63
2022-11-13T09:57:14.822Z,99152.25
2022-11-13T09:59:55.518Z,99157.25
2022-11-13T10:02:35.447Z,99160.75
2022-11-13T10:05:03.691Z,99160.88
2022-11-13T10:07:45.891Z,99165.34
2022-11-13T10:10:17.358Z,99167.50
2022-11-13T10:12:47.566Z,99172.72
2022-11-13T10:15:18.857Z,99173.06
2022-11-13T10:18:01.074Z,99173.19
2022-11-13T10:20:41.452Z,99188.19
2022-11-13T10:23:29.552Z,99178.53
2022-11-13T10:26:12.079Z,99188.09
2022-11-13T10:28:50.682Z,99196.88
2022-11-13T10:31:19.731Z,99207.72
2022-11-13T10:33:48.038Z,99218.91
2022-11-13T10:36:42.930Z,99225.25
2022-11-13T10:39:11.851Z,99231.56
2022-11-13T10:41:51.671Z,99238.25
2022-11-13T10:44:39.053Z,99226.78
2022-11-13T10:47:19.709Z,99219.69
2022-11-13T10:49:57.011Z,99226.66
2022-11-13T10:52:30.055Z,99229.16
2022-11-13T10:55:16.749Z,99228.88
2022-11-13T10:57:57.535Z,99235.16
2022-11-13T11:00:33.824Z,99227.41
2022-11-13T11:03:02.814Z,99256.44
2022-11-13T11:05:31.161Z,99245.31
2022-11-13T11:08:00.598Z,99246.19
2022-11-13T11:10:37.425Z,99248.03
2022-11-13T11:13:14.454Z,99243.53
2022-11-13T11:15:48.657Z,99240.03
2022-11-13T11:18:19.558Z,99247.75
2022-11-13T11:20:53.810Z,99246.50
2022-11-13T11:23:22.035Z,99260.09
2022-11-13T11:26:04.890Z,99253.25
2022-11-13T11:28:39.773Z,99258.91
2022-11-13T11:31:22.738Z,99270.44
2022-11-13T11:34:39.866Z,99281.44
2022-11-13T11:37:17.827Z,99286.06
2022-11-13T11:40:04.031Z,99287.84
2022-11-13T11:42:42.361Z,99290.41
2022-11-13T11:45:22.658Z,99293.47
2022-11-13T11:47:51.442Z,99300.16
2022-11-13T11:50:48.613Z,99299.66
2022-11-13T11:53:30.321Z,99300.72
2022-11-13T11:56:01.684Z,99308.66
2022-11-13T11:58:53.781Z,99315.31
2022-11-13T12:01:59.084Z,99323.28
2022-11-13T12:04:50.798Z,99322.75
2022-11-13T12:07:40.512Z,99327.38
2022-11-13T12:10:23.683Z,99339.66
2022-11-13T12:13:56.481Z,99343.50
2022-11-13T12:16:41.946Z,99345.28
2022-11-13T12:19:38.526Z,99355.53
2022-11-13T12:22:17.727Z,99357.31
2022-11-13T12:25:02.451Z,99366.25
2022-11-13T12:27:44.686Z,99373.16
2022-11-13T12:30:20.408Z,99378.78
2022-11-13T12:33:22.114Z,99390.53
2022-11-13T12:35:55.179Z,99394.84
2022-11-13T12:38:49.816Z,99387.72
2022-11-13T12:41:58.289Z,99387.47
2022-11-13T12:44:30.442Z,99397.16
2022-11-13T12:47:01.873Z,99407.34
2022-11-13T12:49:37.834Z,99409.94
2022-11-13T12:52:23.753Z,99418.09
2022-11-13T12:54:53.343Z,99417.34
2022-11-13T12:57:29.954Z,99417.59
2022-11-13T13:00:12.549Z,99427.28
2022-11-13T13:02:41.623Z,99424.22
2022-11-13T13:05:32.769Z,99435.44
2022-11-13T13:08:15.988Z,99436.47
2022-11-13T13:10:59.177Z,99434.69
2022-11-13T13:13:39.964Z,99438.53
2022-11-13T13:16:09.789Z,99444.66
2022-11-13T13:18:40.001Z,99452.84
2022-11-13T13:21:17.172Z,99461.78
2022-11-13T13:23:52.704Z,99466.63
2022-11-13T13:26:24.684Z,99464.28
2022-11-13T13:29:27.041Z,99463.53
2022-11-13T13:32:25.527Z,99472.72
2022-11-13T13:35:16.482Z,99468.66
2022-11-13T13:37:53.756Z,99474.75
2022-11-13T13:40:27.712Z,99479.59
2022-11-13T13:43:07.914Z,99477.56
2022-11-13T13:45:58.966Z,99479.59
2022-11-13T13:48:30.113Z,99487.75
2022-11-13T13:51:00.990Z,99491.09
2022-11-13T13:53:37.119Z,99490.06
2022-11-13T13:56:06.378Z,99489.81
2022-11-13T13:58:38.472Z,99490.34
2022-11-13T14:01:18.949Z,99490.34
2022-11-13T14:03:48.174Z,99493.66
2022-11-13T14:06:23.426Z,99492.13
2022-11-13T14:08:51.979Z,99499.00
2022-11-13T14:11:21.999Z,99510.22
2022-11-13T14:13:50.285Z,99505.91
2022-11-13T14:16:18.610Z,99498.75
2022-11-13T14:18:46.930Z,99502.06
2022-11-13T14:21:25.835Z,99492.13
2022-11-13T14:23:55.997Z,99495.44
2022-11-13T14:26:24.529Z,99507.44
2022-11-13T14:29:04.051Z,99508.72
2022-11-13T14:31:35.394Z,99509.97
2022-11-13T14:34:16.180Z,99504.88
2022-11-13T14:36:45.155Z,99508.22
2022-11-13T14:39:27.320Z,99510.25
2022-11-13T14:42:00.141Z,99521.47
2022-11-13T14:44:35.225Z,99509.47
2022-11-13T14:47:07.841Z,99511.00
2022-11-13T14:49:38.187Z,99511.00
2022-11-13T14:52:08.052Z,99513.81
2022-11-13T14:55:12.900Z,99513.81
2022-11-13T14:57:31.455Z,99515.84
2022-11-13T15:00:11.984Z,99521.47
2022-11-13T15:02:40.448Z,99523.50
2022-11-13T15:05:09.063Z,99525.03
2022-11-13T15:07:43.173Z,99529.38
2022-11-13T15:10:18.096Z,99523.00
2022-11-13T15:12:46.408Z,99521.47
2022-11-13T15:15:22.979Z,99527.84
2022-11-13T15:17:53.331Z,99519.94
2022-11-13T15:20:27.950Z,99519.16
2022-11-13T15:22:58.307Z,99513.56
2022-11-13T15:25:27.928Z,99509.97
2022-11-13T15:27:56.340Z,99518.88
2022-11-13T15:30:25.415Z,99518.13
2022-11-13T15:32:54.950Z,99513.78
2022-11-13T15:35:23.404Z,99519.91
2022-11-13T15:37:52.325Z,99518.38
2022-11-13T15:40:20.690Z,99524.50
2022-11-13T15:42:50.075Z,99520.16
2022-11-13T15:45:18.919Z,99520.16
2022-11-13T15:47:47.383Z,99516.59
2022-11-13T15:50:16.343Z,99508.94
2022-11-13T15:52:50.408Z,99516.59
2022-11-13T15:55:27.179Z,99517.34
2022-11-13T15:57:57.130Z,99526.53
2022-11-13T16:00:29.922Z,99535.72
2022-11-13T16:02:58.817Z,99527.81
2022-11-13T16:05:30.039Z,99533.41
2022-11-13T16:07:58.812Z,99538.25
2022-11-13T16:10:27.176Z,99540.31
2022-11-13T16:12:56.381Z,99544.38
2022-11-13T16:15:24.779Z,99545.66
2022-11-13T16:17:57.133Z,99542.09
2022-11-13T16:20:26.099Z,99544.13
2022-11-13T16:22:54.481Z,99541.31
2022-11-13T16:25:23.625Z,99555.34
2022-11-13T16:27:53.230Z,99548.19
2022-11-13T16:30:28.794Z,99548.97
2022-11-13T16:32:57.105Z,99547.69
2022-11-13T16:35:25.396Z,99544.91
2022-11-13T16:37:53.692Z,99550.00
2022-11-13T16:40:27.722Z,99552.78
2022-11-13T16:42:56.066Z,99558.66
2022-11-13T16:45:24.761Z,99547.44
2022-11-13T16:47:53.182Z,99542.59
2022-11-13T16:50:25.628Z,99541.31
2022-11-13T16:52:53.974Z,99542.84
2022-11-13T16:55:22.320Z,99543.63
2022-11-13T16:57:50.740Z,99535.97
2022-11-13T17:00:20.749Z,99541.06
2022-11-13T17:02:52.507Z,99533.41
2022-11-13T17:05:22.640Z,99536.22
2022-11-13T17:07:54.311Z,99527.03
2022-11-13T17:10:32.468Z,99527.81
2022-11-13T17:13:01.806Z,99525.00
2022-11-13T17:15:30.347Z,99518.13
2022-11-13T17:18:00.026Z,99520.94
2022-11-13T17:20:28.463Z,99516.09
2022-11-13T17:22:57.077Z,99518.88
2022-11-13T17:25:27.541Z,99513.28
2022-11-13T17:27:55.847Z,99511.53
2022-11-13T17:30:24.543Z,99503.09
2022-11-13T17:32:52.853Z,99500.31
2022-11-13T17:35:21.196Z,99495.47
2022-11-13T17:37:49.501Z,99491.13
2022-11-13T17:40:18.293Z,99481.44
2022-11-13T17:42:48.838Z,99482.72
2022-11-13T17:45:17.594Z,99487.53
2022-11-13T17:47:45.945Z,99483.97
2022-11-13T17:50:15.950Z,99481.66
2022-11-13T17:52:44.306Z,99487.03
2022-11-13T17:55:14.890Z,99479.88
2022-11-13T17:57:43.380Z,99485.25
2022-11-13T18:00:12.284Z,99481.41
2022-11-13T18:02:40.798Z,99482.44
2022-11-13T18:05:10.893Z,99484.47
2022-11-13T18:07:41.116Z,99481.44
2022-11-13T18:10:11.835Z,99487.28
2022-11-13T18:12:40.600Z,99477.34
2022-11-13T18:15:09.323Z,99483.19
2022-11-13T18:17:37.740Z,99477.31
2022-11-13T18:20:06.563Z,99473.22
2022-11-13T18:22:35.013Z,99479.34
2022-11-13T18:25:04.374Z,99476.28
2022-11-13T18:27:32.924Z,99474.50
2022-11-13T18:30:01.376Z,99475.00
2022-11-13T18:32:29.850Z,99476.28
2022-11-13T18:34:58.206Z,99474.25
2022-11-13T18:37:26.721Z,99471.44
2022-11-13T18:39:55.128Z,99472.19
2022-11-13T18:42:23.539Z,99475.78
2022-11-13T18:44:52.155Z,99470.16
2022-11-13T18:47:20.617Z,99471.44
2022-11-13T18:49:49.060Z,99475.00
2022-11-13T18:52:17.485Z,99471.44
2022-11-13T18:54:45.869Z,99466.34
2022-11-13T18:57:14.323Z,99472.72
2022-11-13T18:59:42.718Z,99468.63
2022-11-13T19:02:13.882Z,99465.84
2022-11-13T19:04:42.326Z,99462.53
2022-11-13T19:07:13.240Z,99459.72
2022-11-13T19:09:46.047Z,99452.59
2022-11-13T19:12:14.461Z,99453.34
2022-11-13T19:14:42.917Z,99451.06
2022-11-13T19:17:11.929Z,99450.81
2022-11-13T19:19:42.775Z,99446.47
2022-11-13T19:22:11.295Z,99453.34
2022-11-13T19:24:39.713Z,99448.25
2022-11-13T19:27:08.093Z,99435.53
2022-11-13T19:29:36.608Z,99441.13
2022-11-13T19:32:05.124Z,99437.56
2022-11-13T19:34:33.566Z,99432.72
2022-11-13T19:37:02.032Z,99443.16
2022-11-13T19:39:30.418Z,99434.75
2022-11-13T19:41:58.787Z,99430.44
2022-11-13T19:44:27.292Z,99435.25
2022-11-13T19:46:55.769Z,99433.22
2022-11-13T19:49:24.290Z,99425.59
2022-11-13T19:51:54.424Z,99427.63
2022-11-13T19:54:22.871Z,99424.06
2022-11-13T19:56:51.273Z,99424.06
2022-11-13T19:59:19.625Z,99428.91
2022-11-13T20:01:48.147Z,99422.53
2022-11-13T20:04:16.554Z,99424.56
2022-11-13T20:06:44.910Z,99410.56
2022-11-13T20:09:13.243Z,99407.25
2022-11-13T20:11:41.586Z,99407.25
2022-11-13T20:14:12.840Z,99399.59
2022-11-13T20:16:41.142Z,99400.38
2022-11-13T20:19:09.496Z,99394.75
2022-11-13T20:21:37.851Z,99402.41
2022-11-13T20:24:06.315Z,99405.97
2022-11-13T20:26:34.678Z,99402.41
2022-11-13T20:29:02.992Z,99406.72
2022-11-13T20:31:31.337Z,99401.13
2022-11-13T20:33:59.602Z,99411.06
2022-11-13T20:36:28.070Z,99410.56
2022-11-13T20:38:58.278Z,99404.19
2022-11-13T20:41:27.032Z,99400.09
2022-11-13T20:44:02.642Z,99403.69
2022-11-13T20:46:31.719Z,99408.00
2022-11-13T20:49:00.740Z,99400.88
2022-11-13T20:51:30.204Z,99401.63
2022-11-13T20:53:58.557Z,99404.44
2022-11-13T20:56:28.001Z,99404.44
2022-11-13T20:58:56.618Z,99411.56
2022-11-13T21:01:27.132Z,99405.19
2022-11-13T21:03:56.921Z,99410.81
2022-11-13T21:06:28.025Z,99405.97
2022-11-13T21:08:57.619Z,99408.25
2022-11-13T21:11:26.543Z,99409.78
2022-11-13T21:13:56.405Z,99406.22
2022-11-13T21:16:25.117Z,99409.03
2022-11-13T21:18:53.513Z,99410.28
2022-11-13T21:21:23.543Z,99413.34
2022-11-13T21:23:51.838Z,99413.34
2022-11-13T21:26:20.165Z,99418.44
2022-11-13T21:28:48.717Z,99410.81
2022-11-13T21:31:19.810Z,99415.13
2022-11-13T21:33:49.483Z,99417.16
2022-11-13T21:36:25.784Z,99416.66
2022-11-13T21:38:55.676Z,99422.78
2022-11-13T21:41:25.829Z,99431.94
2022-11-13T21:44:03.032Z,99429.16
2022-11-13T21:46:35.610Z,99425.56
2022-11-13T21:49:07.235Z,99434.75
2022-11-13T21:51:37.877Z,99436.78
2022-11-13T21:54:07.423Z,99431.69
2022-11-13T21:56:38.473Z,99439.34
2022-11-13T21:59:07.925Z,99437.81
2022-11-13T22:01:38.571Z,99442.66
2022-11-13T22:04:07.760Z,99446.72
2022-11-13T22:06:43.017Z,99455.13
2022-11-13T22:09:18.822Z,99454.38
2022-11-13T22:11:47.576Z,99460.47
2022-11-13T22:14:15.921Z,99468.13
2022-11-13T22:16:46.857Z,99470.94
2022-11-13T22:19:25.297Z,99475.78
2022-11-13T22:21:55.507Z,99473.47
2022-11-13T22:24:23.859Z,99484.69
2022-11-13T22:26:52.263Z,99482.41
2022-11-13T22:29:20.557Z,99485.19
2022-11-13T22:31:49.081Z,99488.50
2022-11-13T22:34:17.498Z,99487.75
2022-11-13T22:36:45.868Z,99497.41
2022-11-13T22:39:14.193Z,99500.22
2022-11-13T22:41:42.492Z,99496.66
2022-11-13T22:44:15.345Z,99498.69
2022-11-13T22:46:43.639Z,99502.00
2022-11-13T22:49:12.988Z,99502.78
2022-11-13T22:51:42.573Z,99512.44
2022-11-13T22:54:12.776Z,99506.09
2022-11-13T22:56:42.338Z,99504.56
2022-11-13T22:59:12.929Z,99509.38
2022-11-13T23:01:43.985Z,99508.59
2022-11-13T23:04:14.825Z,99510.16
2022-11-13T23:06:44.218Z,99506.59
2022-11-13T23:09:12.725Z,99508.59
2022-11-13T23:11:43.156Z,99503.78
2022-11-13T23:14:16.700Z,99507.34
2022-11-13T23:16:45.112Z,99506.59
2022-11-13T23:19:13.934Z,99513.22
2022-11-13T23:21:42.869Z,99513.22
2022-11-13T23:24:12.333Z,99509.66
2022-11-13T23:26:40.687Z,99515.25
2022-11-13T23:29:09.686Z,99517.53
2022-11-13T23:31:37.994Z,99514.75
2022-11-13T23:34:06.320Z,99512.69
2022-11-13T23:36:34.642Z,99515.00
2022-11-13T23:39:03.125Z,99517.28
2022-11-13T23:41:31.432Z,99514.75
2022-11-13T23:44:09.131Z,99524.19
2022-11-13T23:46:37.772Z,99522.91
2022-11-13T23:49:06.077Z,99521.13
2022-11-13T23:51:34.392Z,99525.19
2022-11-13T23:54:02.790Z,99521.88
2022-11-13T23:56:31.129Z,99528.50
2022-11-13T23:58:59.574Z,99533.09
